createdAt,value
2022-12-22T00:02:46.387Z,-0.35
2022-12-22T00:05:35.954Z,-0.28
2022-12-22T00:08:22.029Z,-0.18
2022-12-22T00:11:11.705Z,-0.15
2022-12-22T00:14:00.324Z,-0.12
2022-12-22T00:16:57.145Z,-0.13
2022-12-22T00:19:44.461Z,-0.28
2022-12-22T00:22:40.302Z,-0.38
2022-12-22T00:25:33.523Z,-0.36
2022-12-22T00:28:19.516Z,-0.25
2022-12-22T00:31:06.029Z,-0.22
2022-12-22T00:33:51.311Z,-0.35
2022-12-22T00:36:44.167Z,-0.38
2022-12-22T00:39:32.391Z,-0.30
2022-12-22T00:42:25.673Z,-0.28
2022-12-22T00:45:11.918Z,-0.21
2022-12-22T00:48:01.519Z,-0.16
2022-12-22T00:50:57.155Z,-0.11
2022-12-22T00:53:49.911Z,-0.09
2022-12-22T00:56:35.583Z,-0.14
2022-12-22T00:59:22.277Z,-0.15
2022-12-22T01:02:07.663Z,-0.07
2022-12-22T01:04:53.064Z,-0.08
2022-12-22T01:07:41.350Z,-0.11
2022-12-22T01:10:31.510Z,-0.09
2022-12-22T01:13:18.913Z,-0.08
2022-12-22T01:16:04.168Z,-0.08
2022-12-22T01:18:49.435Z,-0.10
2022-12-22T01:21:36.379Z,-0.08
2022-12-22T01:24:32.070Z,-0.05
2022-12-22T01:27:23.148Z,0.00
2022-12-22T01:30:11.015Z,0.01
2022-12-22T01:32:56.173Z,0.02
2022-12-22T01:35:44.310Z,0.04
2022-12-22T01:38:29.771Z,0.05
2022-12-22T01:41:16.948Z,0.04
2022-12-22T01:44:04.232Z,0.02
2022-12-22T01:47:01.868Z,-0.00
2022-12-22T01:52:54.358Z,-0.09
2022-12-22T01:55:46.720Z,-0.09
2022-12-22T01:58:44.657Z,-0.09
2022-12-22T02:01:30.329Z,-0.13
2022-12-22T02:04:17.335Z,-0.10
2022-12-22T02:07:04.569Z,-0.12
2022-12-22T02:10:02.033Z,-0.19
2022-12-22T02:13:02.901Z,-0.23
2022-12-22T02:16:50.236Z,-0.17
2022-12-22T02:19:55.459Z,-0.15
2022-12-22T02:23:24.987Z,-0.14
2022-12-22T02:26:29.130Z,-0.13
2022-12-22T02:29:16.882Z,-0.11
2022-12-22T02:32:10.842Z,-0.10
2022-12-22T02:35:00.109Z,-0.09
2022-12-22T02:38:09.518Z,-0.08
2022-12-22T02:41:26.818Z,-0.11
2022-12-22T02:44:35.124Z,-0.32
2022-12-22T02:47:34.084Z,-0.43
2022-12-22T02:51:09.062Z,-0.44
2022-12-22T02:53:58.830Z,-0.35
2022-12-22T02:56:48.625Z,-0.27
2022-12-22T02:59:38.528Z,-0.20
2022-12-22T03:02:39.103Z,-0.27
2022-12-22T03:05:37.327Z,-0.27
2022-12-22T03:08:31.386Z,-0.37
2022-12-22T03:11:25.300Z,-0.43
2022-12-22T03:14:18.734Z,-0.38
2022-12-22T03:17:05.782Z,-0.39
2022-12-22T03:19:58.710Z,-0.42
2022-12-22T03:23:09.497Z,-0.43
2022-12-22T03:25:57.789Z,-0.52
2022-12-22T03:28:32.472Z,-0.43
2022-12-22T03:31:43.338Z,-0.34
2022-12-22T03:34:37.481Z,-0.20
2022-12-22T03:37:48.445Z,-0.15
2022-12-22T03:40:22.970Z,-0.14
2022-12-22T09:10:51.547Z,3.29
2022-12-22T09:13:18.522Z,3.32
2022-12-22T09:15:45.911Z,3.39
2022-12-22T09:18:12.567Z,3.53
2022-12-22T09:20:39.646Z,3.53
2022-12-22T09:23:06.392Z,3.54
2022-12-22T09:25:34.177Z,3.44
2022-12-22T09:28:00.861Z,3.53
2022-12-22T09:30:27.725Z,3.34
2022-12-22T09:32:54.623Z,3.29
2022-12-22T09:35:21.190Z,3.30
2022-12-22T09:37:48.568Z,3.34
2022-12-22T09:40:15.279Z,3.51
2022-12-22T09:42:41.965Z,3.43
2022-12-22T09:45:19.381Z,3.56
2022-12-22T09:47:53.969Z,3.62
2022-12-22T09:50:26.416Z,3.69
2022-12-22T09:52:57.341Z,3.76
2022-12-22T09:55:23.886Z,3.71
2022-12-22T09:57:56.258Z,3.74
2022-12-22T10:00:28.974Z,3.26
2022-12-22T10:03:00.194Z,3.04
2022-12-22T10:05:47.875Z,3.06
2022-12-22T10:08:28.545Z,3.28
2022-12-22T10:10:55.993Z,3.53
2022-12-22T10:13:22.647Z,3.78
2022-12-22T10:15:49.593Z,3.90
2022-12-22T10:18:18.966Z,4.00
2022-12-22T10:21:06.229Z,4.09
2022-12-22T10:23:38.084Z,4.00
2022-12-22T10:26:27.942Z,4.16
2022-12-22T10:29:17.101Z,4.22
2022-12-22T10:32:10.739Z,4.39
2022-12-22T10:34:57.951Z,4.58
2022-12-22T10:37:39.470Z,4.66
2022-12-22T10:40:20.051Z,4.74
2022-12-22T10:42:53.773Z,4.74
2022-12-22T10:45:26.137Z,4.67
2022-12-22T10:47:56.172Z,4.68
2022-12-22T10:50:25.375Z,4.73
2022-12-22T10:52:54.758Z,4.76
2022-12-22T10:55:25.819Z,4.85
2022-12-22T10:58:14.855Z,4.92
2022-12-22T11:00:45.604Z,5.02
2022-12-22T11:03:20.774Z,5.11
2022-12-22T11:06:00.719Z,5.25
2022-12-22T11:08:29.753Z,5.38
2022-12-22T11:11:04.676Z,5.51
2022-12-22T11:14:05.367Z,5.66
2022-12-22T11:16:50.403Z,5.69
2022-12-22T11:20:27.996Z,5.88
